»·PEaware :: AXY512 KMRY-KVNY

AXY512 :: KMRY-KVNY

FLIGHT INFORMATION

Flight Status: Arrived
Operator:
Axis Airways
More flights by this operator :: More flights under this callsign
Pilot: Ryan B. (8502)
Aircraft: BOEING 737-400
(B734)
More flights by this aircraft type
Origin: KMRY Monterey Peninsula
United States
Destination: KVNY Van Nuys
United States
More flights between these airports :: More routes between these airports
Route: +MRY4 SERFR FLW FERN5
File this flight plan on PilotEdge
Remarks:
Altitude:
(Current/Filed)
29,000ft
Speed:
(Current/Filed)
400kts
Departed: 07-Feb-17 06:33 PM
Arrived: 07-Feb-17 07:20 PM
Distance/Time
Traveled:
217nm/0:47
Distance/Time
To Go:
Arrived

Flight Plot

Page will automatically refresh every two minutes.

Flight plan parsing failed; only flown route is shown


Map Options




Map Legend


Flown Route
Filed Route
Departure Airport
Arrival Airport
Navaid (VOR, NDB)
Fix

Horizontal Profiles

Position Reports

Time Latitude Longitude Heading Altitude Ground
Speed
07-Feb-17 18:17 36.589214 -121.858419 223 161ft 0kts
07-Feb-17 18:18 36.589214 -121.858419 223 161ft 0kts
07-Feb-17 18:19 36.589214 -121.858419 223 161ft 0kts
07-Feb-17 18:20 36.589214 -121.858419 223 161ft 0kts
07-Feb-17 18:21 36.589214 -121.858419 223 161ft 0kts
07-Feb-17 18:22 36.589214 -121.858419 223 161ft 0kts
07-Feb-17 18:23 36.589214 -121.858419 223 161ft 0kts
07-Feb-17 18:24 36.589214 -121.858419 223 161ft 0kts
07-Feb-17 18:25 36.589214 -121.858419 223 161ft 0kts
07-Feb-17 18:26 36.589214 -121.858419 223 161ft 0kts
07-Feb-17 18:27 36.589214 -121.858419 223 161ft 0kts
07-Feb-17 18:28 36.589213 -121.858420 223 161ft 0kts
07-Feb-17 18:29 36.589041 -121.857654 75 163ft 13kts
07-Feb-17 18:30 36.588111 -121.850209 112 179ft 29kts
07-Feb-17 18:31 36.584782 -121.840693 113 240ft 29kts
07-Feb-17 18:32 36.583525 -121.836313 34 247ft 12kts
07-Feb-17 18:33 36.588070 -121.847498 292 184ft 145kts
07-Feb-17 18:34 36.623296 -121.894179 343 1694ft 238kts
07-Feb-17 18:35 36.687345 -121.917443 342 4957ft 245kts
07-Feb-17 18:36 36.752512 -121.937973 339 8606ft 246kts
07-Feb-17 18:37 36.808058 -121.979758 358 11280ft 284kts
07-Feb-17 18:38 36.858058 -121.898337 95 13338ft 363kts
07-Feb-17 18:39 36.791360 -121.815151 167 14808ft 382kts
07-Feb-17 18:40 36.693340 -121.754742 159 17354ft 402kts
07-Feb-17 18:41 36.593867 -121.691956 160 19719ft 418kts
07-Feb-17 18:42 36.490857 -121.627131 161 21876ft 433kts
07-Feb-17 18:43 36.383141 -121.559548 161 23890ft 446kts
07-Feb-17 18:44 36.273864 -121.491204 162 25720ft 459kts
07-Feb-17 18:45 36.161608 -121.421179 162 27747ft 463kts
07-Feb-17 18:46 36.053780 -121.344399 140 29118ft 490kts
07-Feb-17 18:47 35.972457 -121.218320 135 29105ft 506kts
07-Feb-17 18:48 35.890738 -121.090544 134 29101ft 524kts
07-Feb-17 18:49 35.804287 -120.955942 134 29064ft 525kts
07-Feb-17 18:50 35.714571 -120.816947 134 29101ft 526kts
07-Feb-17 18:51 35.639987 -120.701693 134 29181ft 522kts
07-Feb-17 18:52 35.551463 -120.565430 134 29110ft 520kts
07-Feb-17 18:53 35.461290 -120.427127 134 29110ft 525kts
07-Feb-17 18:54 35.377136 -120.298237 134 29121ft 524kts
07-Feb-17 18:55 35.285604 -120.161438 134 27471ft 512kts
07-Feb-17 18:56 35.197763 -120.029055 134 25710ft 502kts
07-Feb-17 18:57 35.112908 -119.899079 133 24497ft 487kts
07-Feb-17 18:58 35.026995 -119.776708 137 24150ft 474kts
07-Feb-17 18:59 34.939288 -119.658055 137 24158ft 471kts
07-Feb-17 19:00 34.853663 -119.542752 136 24163ft 466kts
07-Feb-17 19:01 34.766879 -119.426390 136 20424ft 486kts
07-Feb-17 19:02 34.683576 -119.314897 136 18065ft 464kts
07-Feb-17 19:03 34.603145 -119.207571 136 16308ft 412kts
07-Feb-17 19:04 34.527710 -119.107427 136 13788ft 395kts
07-Feb-17 19:05 34.456950 -119.013371 135 11316ft 379kts
07-Feb-17 19:06 34.392757 -118.926946 137 10924ft 321kts
07-Feb-17 19:07 34.373762 -118.829792 66 9664ft 319kts
07-Feb-17 19:08 34.406643 -118.740416 53 8474ft 311kts
07-Feb-17 19:09 34.457791 -118.658659 52 7265ft 303kts
07-Feb-17 19:10 34.521296 -118.602897 12 6178ft 293kts
07-Feb-17 19:11 34.574114 -118.554208 91 6048ft 230kts
07-Feb-17 19:12 34.569150 -118.480543 140 5991ft 218kts
07-Feb-17 19:13 34.515903 -118.487195 201 5437ft 213kts
07-Feb-17 19:14 34.463507 -118.513506 185 4959ft 197kts
07-Feb-17 19:15 34.412336 -118.510773 172 4956ft 182kts
07-Feb-17 19:16 34.364686 -118.505028 174 4754ft 173kts
07-Feb-17 19:17 34.316728 -118.500625 173 3431ft 172kts
07-Feb-17 19:18 34.274027 -118.496477 173 2341ft 156kts
07-Feb-17 19:19 34.234267 -118.492674 173 1322ft 144kts
07-Feb-17 19:20 34.202891 -118.489808 206 764ft 17kts
07-Feb-17 19:21 34.204748 -118.491083 355 770ft 16kts
07-Feb-17 19:22 34.206294 -118.493260 184 774ft 9kts
07-Feb-17 19:23 34.205407 -118.493325 91 772ft 0kts
07-Feb-17 19:24 34.205407 -118.493325 91 772ft 0kts

Navigation Log

Ident Type
Flight plan parsing failed, navigation log unavailable